createdAt,value
2022-12-29T00:01:57.452Z,4.48
2022-12-29T00:04:25.113Z,4.49
2022-12-29T00:06:54.708Z,4.53
2022-12-29T00:09:22.941Z,4.58
2022-12-29T00:11:52.191Z,4.61
2022-12-29T00:14:39.124Z,4.68
2022-12-29T00:17:06.762Z,4.71
2022-12-29T00:19:53.775Z,4.77
2022-12-29T00:22:40.760Z,4.82
2022-12-29T00:25:30.759Z,4.89
2022-12-29T00:28:17.001Z,4.93
2022-12-29T00:31:04.306Z,4.96
2022-12-29T00:33:52.983Z,5.04
2022-12-29T00:36:26.209Z,5.09
2022-12-29T00:39:17.696Z,5.15
2022-12-29T00:42:04.382Z,5.19
2022-12-29T00:44:32.143Z,5.23
2022-12-29T00:47:04.396Z,5.25
2022-12-29T00:49:32.932Z,5.26
2022-12-29T00:52:05.177Z,5.27
2022-12-29T00:54:35.366Z,5.28
2022-12-29T00:57:04.354Z,5.31
2022-12-29T00:59:32.232Z,5.31
2022-12-29T01:02:00.767Z,5.35
2022-12-29T01:04:29.005Z,5.38
2022-12-29T01:06:56.842Z,5.37
2022-12-29T01:09:43.141Z,5.38
2022-12-29T01:12:11.874Z,5.40
2022-12-29T01:14:39.921Z,5.41
2022-12-29T01:17:07.814Z,5.44
2022-12-29T01:19:35.498Z,5.46
2022-12-29T01:22:03.599Z,5.48
2022-12-29T01:24:31.355Z,5.49
2022-12-29T01:26:59.068Z,5.51
2022-12-29T01:29:26.888Z,5.53
2022-12-29T01:31:54.619Z,5.55
2022-12-29T01:34:22.451Z,5.58
2022-12-29T01:36:50.212Z,5.58
2022-12-29T01:39:17.924Z,5.61
2022-12-29T01:41:45.528Z,5.63
2022-12-29T01:45:01.232Z,5.65
2022-12-29T01:47:38.566Z,5.65
2022-12-29T01:50:14.621Z,5.67
2022-12-29T01:52:50.766Z,5.67
2022-12-29T01:55:19.382Z,5.78
2022-12-29T01:57:51.471Z,5.93
2022-12-29T02:00:19.590Z,6.11
2022-12-29T02:02:52.363Z,6.34
2022-12-29T02:05:38.703Z,6.50
2022-12-29T02:08:06.829Z,6.72
2022-12-29T02:10:37.144Z,6.89
2022-12-29T02:13:05.625Z,7.08
2022-12-29T02:15:49.656Z,7.26
2022-12-29T02:18:43.995Z,7.40
2022-12-29T02:21:17.377Z,7.54
2022-12-29T02:24:08.175Z,7.64
2022-12-29T02:26:53.979Z,7.77
2022-12-29T02:30:09.434Z,7.84
2022-12-29T02:32:49.055Z,7.91
2022-12-29T02:35:40.241Z,7.98
2022-12-29T02:38:32.800Z,8.00
2022-12-29T02:41:39.900Z,8.03
2022-12-29T02:44:28.979Z,8.06
2022-12-29T02:47:06.034Z,8.08
2022-12-29T02:49:46.776Z,8.09
2022-12-29T02:52:23.679Z,8.12
2022-12-29T02:54:52.104Z,8.14
2022-12-29T02:57:22.910Z,8.15
2022-12-29T02:59:56.618Z,8.18
2022-12-29T03:02:41.081Z,8.20
2022-12-29T03:05:31.192Z,8.22
2022-12-29T03:08:29.890Z,8.26
2022-12-29T03:10:57.494Z,8.30
2022-12-29T03:14:05.114Z,8.35
2022-12-29T03:16:47.813Z,8.36
2022-12-29T03:19:32.840Z,8.38
2022-12-29T03:22:27.879Z,8.41
2022-12-29T03:25:10.162Z,8.45
2022-12-29T03:27:44.358Z,8.48
2022-12-29T03:30:13.930Z,8.47
2022-12-29T03:32:48.564Z,8.47
2022-12-29T03:35:19.880Z,8.47
2022-12-29T03:38:21.480Z,8.47
2022-12-29T03:40:54.603Z,8.45
2022-12-29T03:43:22.312Z,8.44
2022-12-29T03:45:49.951Z,8.41
2022-12-29T03:48:17.752Z,8.41
2022-12-29T03:50:46.220Z,8.38
2022-12-29T03:53:14.060Z,8.38
2022-12-29T03:55:42.433Z,8.36
2022-12-29T03:58:10.145Z,8.34
2022-12-29T04:00:38.427Z,8.33
2022-12-29T04:03:06.223Z,8.31
2022-12-29T04:05:33.905Z,8.29
2022-12-29T04:08:02.216Z,8.27
2022-12-29T04:10:29.985Z,8.23
2022-12-29T04:12:57.718Z,8.19
2022-12-29T04:15:26.409Z,8.20
2022-12-29T04:17:54.392Z,8.17
2022-12-29T04:20:40.930Z,8.16
2022-12-29T04:23:09.590Z,8.16
2022-12-29T04:25:37.298Z,8.14
2022-12-29T04:28:05.287Z,8.12
2022-12-29T04:30:33.019Z,8.10
2022-12-29T04:33:00.700Z,8.08
2022-12-29T04:35:28.464Z,8.09
2022-12-29T04:37:56.156Z,8.10
2022-12-29T04:40:25.290Z,8.09
2022-12-29T04:42:52.980Z,8.06
2022-12-29T04:45:20.724Z,8.06
2022-12-29T04:47:48.461Z,8.05
2022-12-29T04:50:16.344Z,8.05
2022-12-29T04:52:44.463Z,8.02
2022-12-29T04:55:12.340Z,8.00
2022-12-29T04:57:40.053Z,7.99
2022-12-29T05:00:08.641Z,7.99
2022-12-29T05:02:36.414Z,7.95
2022-12-29T05:05:04.190Z,7.93
2022-12-29T05:07:32.107Z,7.90
2022-12-29T05:10:00.140Z,7.87
2022-12-29T05:12:28.044Z,7.84
2022-12-29T05:14:55.657Z,7.81
2022-12-29T05:17:23.279Z,7.78
2022-12-29T05:19:51.124Z,7.75
2022-12-29T05:22:18.807Z,7.71
2022-12-29T05:24:46.906Z,7.70
2022-12-29T05:27:14.799Z,7.67
2022-12-29T05:29:42.443Z,7.64
2022-12-29T05:32:10.185Z,7.63
2022-12-29T05:34:37.932Z,7.59
2022-12-29T05:37:05.641Z,7.58
2022-12-29T05:39:33.264Z,7.54
2022-12-29T05:42:00.942Z,7.53
2022-12-29T05:44:28.669Z,7.53
2022-12-29T05:46:56.420Z,7.54
2022-12-29T05:49:24.171Z,7.53
2022-12-29T05:51:51.881Z,7.54
2022-12-29T05:54:19.786Z,7.50
2022-12-29T05:56:47.541Z,7.48
2022-12-29T05:59:15.243Z,7.46
2022-12-29T06:01:42.983Z,7.42
2022-12-29T06:04:10.866Z,7.42
2022-12-29T06:06:38.764Z,7.40
2022-12-29T06:09:06.442Z,7.36
2022-12-29T06:11:34.797Z,7.36
2022-12-29T06:14:02.597Z,7.34
2022-12-29T06:16:30.319Z,7.31
2022-12-29T06:18:58.097Z,7.29
2022-12-29T06:21:25.937Z,7.28
2022-12-29T06:23:53.553Z,7.27
2022-12-29T06:26:21.326Z,7.24
2022-12-29T06:28:49.099Z,7.24
2022-12-29T06:31:16.844Z,7.24
2022-12-29T06:33:49.577Z,7.26
2022-12-29T06:36:17.813Z,7.30
2022-12-29T06:38:45.811Z,7.36
2022-12-29T06:41:13.503Z,7.44
2022-12-29T06:43:41.749Z,7.57
2022-12-29T06:46:09.553Z,7.69
2022-12-29T06:48:37.413Z,7.81
2022-12-29T06:51:05.497Z,7.90
2022-12-29T06:53:33.193Z,8.01
2022-12-29T06:56:00.958Z,8.13
2022-12-29T06:58:28.673Z,8.24
2022-12-29T07:00:56.497Z,8.35
2022-12-29T07:03:24.389Z,8.43
2022-12-29T07:05:52.149Z,8.52
2022-12-29T07:08:19.893Z,8.62
2022-12-29T07:10:48.070Z,8.69
2022-12-29T07:13:15.838Z,8.75
2022-12-29T07:15:43.636Z,8.82
2022-12-29T07:18:11.338Z,8.89
2022-12-29T07:20:39.038Z,8.93
2022-12-29T07:23:06.772Z,8.96
2022-12-29T07:25:35.053Z,9.00
2022-12-29T07:28:02.799Z,9.04
2022-12-29T07:30:30.620Z,9.07
2022-12-29T07:32:59.102Z,9.08
2022-12-29T07:35:26.930Z,9.13
2022-12-29T07:37:54.658Z,9.12
2022-12-29T07:40:22.387Z,9.17
2022-12-29T07:42:50.255Z,9.19
2022-12-29T07:45:18.189Z,9.24
2022-12-29T07:47:49.276Z,9.28
2022-12-29T07:50:17.174Z,9.31
2022-12-29T07:52:45.226Z,9.33
2022-12-29T07:55:13.119Z,9.40
2022-12-29T07:57:40.832Z,9.45
2022-12-29T08:00:09.337Z,9.49
2022-12-29T08:02:37.638Z,9.53
2022-12-29T08:05:05.790Z,9.54
2022-12-29T08:07:33.405Z,9.57
2022-12-29T08:10:01.211Z,9.66
2022-12-29T08:12:28.933Z,9.70
2022-12-29T08:14:56.669Z,9.76
2022-12-29T08:17:24.318Z,9.79
2022-12-29T08:19:52.055Z,9.83
2022-12-29T08:22:19.776Z,9.87
2022-12-29T08:24:47.488Z,9.87
2022-12-29T08:27:20.391Z,9.90
2022-12-29T08:29:48.564Z,9.93
2022-12-29T08:32:16.498Z,9.94
2022-12-29T08:34:44.248Z,9.96
2022-12-29T08:37:11.986Z,9.98
2022-12-29T08:39:40.317Z,10.01
2022-12-29T08:42:08.377Z,10.08
2022-12-29T08:44:36.037Z,10.12
2022-12-29T08:47:03.805Z,10.12
2022-12-29T08:49:31.580Z,10.10
2022-12-29T08:51:59.192Z,10.10
2022-12-29T08:54:27.038Z,10.13
2022-12-29T08:56:55.826Z,10.13
2022-12-29T08:59:23.561Z,10.16
2022-12-29T09:01:51.981Z,10.15
2022-12-29T09:04:20.023Z,10.17
2022-12-29T09:06:47.827Z,10.21
2022-12-29T09:09:15.588Z,10.25
2022-12-29T09:11:44.136Z,10.27
2022-12-29T09:14:11.881Z,10.29
2022-12-29T09:16:39.738Z,10.30
2022-12-29T09:19:07.802Z,10.29
2022-12-29T09:21:35.842Z,10.30
2022-12-29T09:24:03.707Z,10.30
2022-12-29T09:26:31.366Z,10.34
2022-12-29T09:28:59.708Z,10.37
2022-12-29T09:31:27.513Z,10.39
2022-12-29T09:33:55.123Z,10.40
2022-12-29T09:36:22.875Z,10.41
2022-12-29T09:38:51.842Z,10.43
2022-12-29T09:41:41.123Z,10.45
2022-12-29T09:44:27.548Z,10.50
2022-12-29T09:46:57.845Z,10.56
2022-12-29T09:49:48.016Z,10.66
2022-12-29T09:52:27.988Z,10.77
2022-12-29T09:55:03.137Z,10.86
2022-12-29T09:57:40.352Z,10.96
2022-12-29T10:00:20.442Z,11.00
2022-12-29T10:02:57.144Z,11.06
2022-12-29T10:05:50.239Z,11.11
2022-12-29T10:08:57.776Z,11.15
2022-12-29T10:11:56.246Z,11.21
2022-12-29T10:14:50.661Z,11.25
2022-12-29T10:17:32.710Z,11.29
2022-12-29T10:20:06.430Z,11.35
2022-12-29T10:23:10.752Z,11.38
2022-12-29T10:25:41.405Z,11.45
2022-12-29T10:28:27.346Z,11.53
2022-12-29T10:30:55.931Z,11.58
2022-12-29T10:33:27.504Z,11.62
2022-12-29T10:35:55.341Z,11.65
2022-12-29T10:38:37.756Z,11.64
2022-12-29T10:41:18.045Z,11.68
2022-12-29T10:43:53.052Z,11.67
2022-12-29T10:46:34.816Z,11.69
2022-12-29T10:49:03.975Z,11.77
2022-12-29T10:51:37.357Z,11.78
2022-12-29T10:54:21.492Z,11.83
2022-12-29T10:56:54.245Z,11.87
2022-12-29T10:59:25.716Z,11.93
2022-12-29T11:02:11.927Z,11.96
2022-12-29T11:05:07.746Z,12.04
2022-12-29T11:07:35.633Z,12.04
2022-12-29T11:10:32.826Z,12.02
2022-12-29T11:13:03.696Z,11.97
2022-12-29T11:15:44.303Z,11.91
2022-12-29T11:18:38.328Z,11.89
2022-12-29T11:21:32.449Z,11.85
2022-12-29T11:24:03.403Z,11.85
2022-12-29T11:26:34.832Z,11.82
2022-12-29T11:29:13.986Z,11.83
2022-12-29T11:32:01.183Z,11.81
2022-12-29T11:34:35.757Z,11.83
2022-12-29T11:37:12.520Z,11.84
2022-12-29T11:39:51.620Z,11.85
2022-12-29T11:42:25.681Z,11.85
2022-12-29T11:44:54.869Z,11.85
2022-12-29T11:47:31.761Z,11.88
2022-12-29T11:50:03.931Z,11.83
2022-12-29T11:52:37.148Z,11.84
2022-12-29T11:55:08.864Z,11.80
2022-12-29T11:57:37.407Z,11.83
2022-12-29T12:00:17.952Z,11.84
2022-12-29T12:03:05.942Z,11.83
2022-12-29T12:05:46.901Z,11.83
2022-12-29T12:08:23.395Z,11.80
2022-12-29T12:11:06.668Z,11.78
2022-12-29T12:13:41.303Z,11.79
2022-12-29T12:16:15.038Z,11.77
2022-12-29T12:18:47.562Z,11.70
2022-12-29T12:21:45.660Z,11.68
2022-12-29T12:24:39.985Z,11.64
2022-12-29T12:27:26.122Z,11.62
2022-12-29T12:30:17.430Z,11.60
2022-12-29T12:33:00.288Z,11.58
2022-12-29T12:36:00.591Z,11.57
2022-12-29T12:38:43.976Z,11.57
2022-12-29T12:41:40.665Z,11.56
2022-12-29T12:44:17.376Z,11.53
2022-12-29T12:47:13.803Z,11.54
2022-12-29T12:49:59.481Z,11.52
2022-12-29T12:52:48.547Z,11.51
2022-12-29T12:55:57.867Z,11.52
2022-12-29T12:58:42.815Z,11.51
2022-12-29T13:01:39.946Z,11.53
2022-12-29T13:04:46.050Z,11.56
2022-12-29T13:07:34.959Z,11.57
2022-12-29T13:10:21.001Z,11.61
2022-12-29T13:13:03.200Z,11.64
2022-12-29T13:15:59.060Z,11.65
2022-12-29T13:18:57.162Z,11.66
2022-12-29T13:21:46.442Z,11.65
2022-12-29T13:24:49.644Z,11.66
2022-12-29T13:27:33.573Z,11.68
2022-12-29T13:30:11.265Z,11.77
2022-12-29T13:32:51.577Z,11.80
2022-12-29T13:35:28.275Z,11.85
2022-12-29T13:38:05.662Z,11.89
2022-12-29T13:40:40.699Z,11.93
2022-12-29T13:43:09.249Z,11.94
2022-12-29T13:45:38.028Z,11.98
2022-12-29T13:48:39.089Z,11.96
2022-12-29T13:51:07.711Z,11.94
2022-12-29T13:53:55.272Z,11.94
2022-12-29T13:56:34.889Z,11.89
2022-12-29T13:59:20.426Z,11.86
2022-12-29T14:02:34.232Z,11.83
2022-12-29T14:05:05.088Z,11.78
2022-12-29T14:07:40.352Z,11.73
2022-12-29T14:10:08.553Z,11.68
2022-12-29T14:12:45.351Z,11.65
2022-12-29T14:15:13.026Z,11.62
2022-12-29T14:17:42.602Z,11.56
2022-12-29T14:20:23.456Z,11.50
2022-12-29T14:23:19.553Z,11.44
2022-12-29T14:26:08.769Z,11.38
2022-12-29T14:28:41.856Z,11.36
2022-12-29T14:31:21.723Z,11.33
2022-12-29T14:34:08.075Z,11.30
2022-12-29T14:36:38.615Z,11.27
2022-12-29T14:39:27.422Z,11.24
2022-12-29T14:42:13.964Z,11.24
2022-12-29T14:44:51.651Z,11.23
2022-12-29T14:47:32.623Z,11.22
2022-12-29T14:50:23.680Z,11.20
2022-12-29T14:53:02.970Z,11.19
2022-12-29T14:55:48.625Z,11.18
2022-12-29T14:58:38.038Z,11.17
2022-12-29T15:01:06.131Z,11.16
2022-12-29T15:03:38.457Z,11.14
2022-12-29T15:06:13.476Z,11.12
2022-12-29T15:09:05.651Z,11.10
2022-12-29T15:11:42.481Z,11.07
2022-12-29T15:14:41.571Z,11.05
2022-12-29T15:17:33.453Z,11.00
2022-12-29T15:20:37.555Z,11.00
2022-12-29T15:23:18.508Z,10.97
2022-12-29T15:25:55.289Z,10.97
2022-12-29T15:28:24.332Z,10.95
2022-12-29T15:30:59.432Z,10.94
2022-12-29T15:33:29.921Z,10.90
2022-12-29T15:36:04.570Z,10.88
2022-12-29T15:38:38.757Z,10.86
2022-12-29T15:41:21.735Z,10.83
2022-12-29T15:44:24.860Z,10.81
2022-12-29T15:46:52.536Z,10.75
2022-12-29T15:49:23.238Z,10.72
2022-12-29T15:51:53.900Z,10.71
2022-12-29T15:54:24.001Z,10.68
2022-12-29T15:56:52.162Z,10.65
2022-12-29T15:59:32.351Z,10.63
2022-12-29T16:02:07.160Z,10.63
2022-12-29T16:04:54.086Z,10.62
2022-12-29T16:07:40.792Z,10.61
2022-12-29T16:10:28.947Z,10.59
2022-12-29T16:12:56.849Z,10.57
2022-12-29T16:15:24.747Z,10.54
2022-12-29T16:17:55.036Z,10.51
2022-12-29T16:20:27.357Z,10.44
2022-12-29T16:22:59.881Z,10.38
2022-12-29T16:25:33.307Z,10.30
2022-12-29T16:28:03.023Z,10.25
2022-12-29T16:30:34.538Z,10.21
2022-12-29T16:33:07.763Z,10.16
2022-12-29T16:35:48.622Z,10.13
2022-12-29T16:38:20.812Z,10.10
2022-12-29T16:41:06.443Z,10.08
2022-12-29T16:43:36.782Z,10.08
2022-12-29T16:46:04.438Z,10.05
2022-12-29T16:48:36.945Z,10.04
2022-12-29T16:51:18.026Z,10.03
2022-12-29T16:53:56.488Z,10.04
2022-12-29T16:56:34.988Z,10.03
2022-12-29T16:59:08.003Z,10.02
2022-12-29T17:01:42.004Z,9.99
2022-12-29T17:04:15.396Z,9.97
2022-12-29T17:06:43.261Z,9.95
2022-12-29T17:09:28.834Z,9.93
2022-12-29T17:12:10.375Z,9.90
2022-12-29T17:14:48.476Z,9.87
2022-12-29T17:17:37.209Z,9.84
2022-12-29T17:20:18.225Z,9.84
2022-12-29T17:22:46.328Z,9.81
2022-12-29T17:25:15.942Z,9.82
2022-12-29T17:27:45.904Z,9.79
2022-12-29T17:30:17.068Z,9.78
2022-12-29T17:32:49.434Z,9.78
2022-12-29T17:35:18.667Z,9.74
2022-12-29T17:37:46.659Z,9.70
2022-12-29T17:40:23.434Z,9.60
2022-12-29T17:42:54.461Z,9.51
2022-12-29T17:45:25.802Z,9.42
2022-12-29T17:47:54.085Z,9.36
2022-12-29T17:50:24.691Z,9.23
2022-12-29T17:53:01.145Z,9.12
2022-12-29T17:55:36.729Z,8.99
2022-12-29T17:58:19.419Z,8.86
2022-12-29T18:00:49.962Z,8.74
2022-12-29T18:03:29.130Z,8.60
2022-12-29T18:05:57.267Z,8.52
2022-12-29T18:08:25.049Z,8.42
2022-12-29T18:10:55.019Z,8.39
2022-12-29T18:13:30.725Z,8.31
2022-12-29T18:16:03.763Z,8.28
2022-12-29T18:18:31.477Z,8.27
2022-12-29T18:21:01.247Z,8.22
2022-12-29T18:23:36.345Z,8.20
2022-12-29T18:26:22.333Z,8.20
2022-12-29T18:28:54.622Z,8.19
2022-12-29T18:31:28.202Z,8.17
2022-12-29T18:33:57.797Z,8.18
2022-12-29T18:36:26.102Z,8.17
2022-12-29T18:38:55.696Z,8.16
2022-12-29T18:41:30.673Z,8.17
2022-12-29T18:44:00.131Z,8.17
2022-12-29T18:46:28.039Z,8.16
2022-12-29T18:48:55.837Z,8.14
2022-12-29T18:51:25.526Z,8.13
2022-12-29T18:53:55.192Z,8.10
2022-12-29T18:56:24.062Z,8.06
2022-12-29T18:58:52.675Z,8.01
2022-12-29T19:01:23.692Z,7.95
2022-12-29T19:03:51.932Z,7.93
2022-12-29T19:06:20.601Z,7.89
2022-12-29T19:08:48.382Z,7.84
2022-12-29T19:11:16.144Z,7.81
2022-12-29T19:13:43.823Z,7.79
2022-12-29T19:16:19.635Z,7.76
2022-12-29T19:18:58.297Z,7.76
2022-12-29T19:21:35.017Z,7.72
2022-12-29T19:24:02.733Z,7.70
2022-12-29T19:26:35.560Z,7.67
2022-12-29T19:29:04.095Z,7.65
2022-12-29T19:31:31.855Z,7.62
2022-12-29T19:33:59.673Z,7.60
2022-12-29T19:36:27.284Z,7.57
2022-12-29T19:38:55.224Z,7.58
2022-12-29T19:41:23.194Z,7.57
2022-12-29T19:43:51.511Z,7.58
2022-12-29T19:46:20.929Z,7.58
2022-12-29T19:48:48.831Z,7.57
2022-12-29T19:51:18.224Z,7.57
2022-12-29T19:53:47.141Z,7.58
2022-12-29T19:56:17.930Z,7.57
2022-12-29T19:58:47.839Z,7.55
2022-12-29T20:01:21.752Z,7.58
2022-12-29T20:03:50.676Z,7.57
2022-12-29T20:06:19.049Z,7.58
2022-12-29T20:08:46.868Z,7.57
2022-12-29T20:11:17.532Z,7.58
2022-12-29T20:13:45.917Z,7.58
2022-12-29T20:16:19.194Z,7.60
2022-12-29T20:18:48.360Z,7.59
2022-12-29T20:21:21.446Z,7.62
2022-12-29T20:23:50.221Z,7.60
2022-12-29T20:26:21.676Z,7.63
2022-12-29T20:28:50.362Z,7.63
2022-12-29T20:31:24.004Z,7.65
2022-12-29T20:33:52.105Z,7.66
2022-12-29T20:36:23.087Z,7.67
2022-12-29T20:38:53.995Z,7.67
2022-12-29T20:41:22.455Z,7.71
2022-12-29T20:43:50.815Z,7.72
2022-12-29T20:46:21.856Z,7.74
2022-12-29T20:48:51.621Z,7.72
2022-12-29T20:51:20.551Z,7.71
2022-12-29T20:53:48.851Z,7.68
2022-12-29T20:56:19.340Z,7.70
2022-12-29T20:59:17.568Z,7.68
2022-12-29T21:01:36.048Z,7.68
2022-12-29T21:04:04.376Z,7.67
2022-12-29T21:06:32.580Z,7.66
2022-12-29T21:09:01.128Z,7.64
2022-12-29T21:11:29.165Z,7.63
2022-12-29T21:14:00.904Z,7.63
2022-12-29T21:16:29.423Z,7.62
2022-12-29T21:18:57.167Z,7.63
2022-12-29T21:21:26.532Z,7.64
2022-12-29T21:23:55.995Z,7.62
2022-12-29T21:26:25.281Z,7.62
2022-12-29T21:28:53.259Z,7.62
2022-12-29T21:31:27.054Z,7.62
2022-12-29T21:33:56.117Z,7.62
2022-12-29T21:36:24.653Z,7.60
2022-12-29T21:38:52.754Z,7.61
2022-12-29T21:41:20.513Z,7.61
2022-12-29T21:44:07.685Z,7.60
2022-12-29T21:46:39.318Z,7.60
2022-12-29T21:49:07.676Z,7.59
2022-12-29T21:51:55.014Z,7.60
2022-12-29T21:54:45.266Z,7.58
2022-12-29T21:57:34.719Z,7.58
2022-12-29T22:00:21.429Z,7.58
2022-12-29T22:03:08.066Z,7.59
2022-12-29T22:05:54.278Z,7.58
2022-12-29T22:08:40.788Z,7.57
2022-12-29T22:11:28.389Z,7.57
2022-12-29T22:13:56.969Z,7.58
2022-12-29T22:16:26.403Z,7.58
2022-12-29T22:18:54.453Z,7.58
2022-12-29T22:21:22.274Z,7.58
2022-12-29T22:23:49.966Z,7.58
2022-12-29T22:26:17.737Z,7.58
2022-12-29T22:28:47.407Z,7.58
2022-12-29T22:31:31.747Z,7.56
2022-12-29T22:34:02.411Z,7.59
2022-12-29T22:36:30.875Z,7.58
2022-12-29T22:38:58.523Z,7.59
2022-12-29T22:41:26.253Z,7.61
2022-12-29T22:43:54.024Z,7.61
2022-12-29T22:46:21.750Z,7.61
2022-12-29T22:48:49.591Z,7.61
2022-12-29T22:51:17.265Z,7.60
2022-12-29T22:53:46.569Z,7.59
2022-12-29T22:56:15.603Z,7.61
2022-12-29T22:58:44.889Z,7.58
2022-12-29T23:01:17.148Z,7.57
2022-12-29T23:03:45.684Z,7.59
2022-12-29T23:06:15.547Z,7.56
2022-12-29T23:08:44.230Z,7.51
2022-12-29T23:11:14.033Z,7.52
2022-12-29T23:13:43.281Z,7.50
2022-12-29T23:16:10.985Z,7.51
2022-12-29T23:18:38.820Z,7.51
2022-12-29T23:21:07.188Z,7.52
2022-12-29T23:23:53.974Z,7.51
2022-12-29T23:26:31.972Z,7.50
2022-12-29T23:29:01.479Z,7.50
2022-12-29T23:31:30.944Z,7.48
2022-12-29T23:34:00.140Z,7.47
2022-12-29T23:36:28.590Z,7.46
2022-12-29T23:38:56.785Z,7.44
2022-12-29T23:41:25.237Z,7.42
2022-12-29T23:43:53.376Z,7.40
2022-12-29T23:46:24.957Z,7.39
2022-12-29T23:48:52.879Z,7.36
2022-12-29T23:51:20.934Z,7.34
2022-12-29T23:53:48.824Z,7.32
2022-12-29T23:56:21.058Z,7.31
2022-12-29T23:58:48.902Z,7.28
